LGAD/PYR METAR and TAF weather

Enter ICAO airport designator
Station Type Date Time Source
LGAD METAR 2022/06/28 07:50 UTC NOAA

LGAD 280750Z 31004KT CAVOK 31/20 Q1014


Station Type Date Time Source
LGAD Decoded METAR 2022/06/28 07:50 UTC NOAA

Andravida Airport , Greece (LGAD) 37-55N 021-17E 14M
Jun 28, 2022 - 03:50 AM EDT / 2022.06.28 0750 UTC
Wind: from the NW (310 degrees) at 5 MPH (4 KT):0
Visibility: greater than 7 mile(s):0
Temperature: 87 F (31 C)
Dew Point: 68 F (20 C)
Relative Humidity: 52%
Pressure (altimeter): 29.94 in. Hg (1014 hPa)
ob: LGAD 280750Z 31004KT CAVOK 31/20 Q1014
cycle: 8

Station Type Date Time Source
LGAD TAF 2020/03/18 09:39 UTC NOAA

TAF TAF LGAD 180800Z 1809/1821 30006KT 9999 FEW030
BECMG 1816/1818 07010KT

Example: see airport list